createdAt,value
2023-05-23T04:34:07.971Z,19.70
2023-05-23T04:36:40.239Z,19.40
2023-05-23T04:39:09.638Z,21.02
2023-05-23T04:41:45.246Z,20.92
2023-05-23T04:44:20.655Z,19.98
2023-05-23T04:46:56.544Z,19.42
2023-05-23T04:49:34.081Z,22.50
2023-05-23T04:52:02.616Z,22.38
2023-05-23T04:54:33.129Z,20.13
2023-05-23T04:57:06.194Z,24.10
2023-05-23T04:59:35.169Z,25.00
2023-05-23T05:02:05.756Z,23.40
2023-05-23T05:04:36.299Z,25.13
2023-05-23T05:07:04.729Z,27.85
2023-05-23T05:09:33.226Z,25.73
2023-05-23T05:12:01.807Z,24.30
2023-05-23T05:14:30.957Z,23.60
2023-05-23T05:16:59.710Z,23.52
2023-05-23T05:19:36.494Z,24.77
2023-05-23T05:22:05.066Z,29.10
2023-05-23T05:24:33.813Z,23.35
2023-05-23T05:27:02.271Z,22.08
2023-05-23T05:29:31.365Z,22.17
2023-05-23T05:32:01.229Z,23.52
2023-05-23T05:34:29.910Z,25.27
2023-05-23T05:37:00.024Z,21.55
2023-05-23T05:39:28.352Z,20.30
2023-05-23T05:41:56.783Z,20.70
2023-05-23T05:44:25.414Z,18.77
2023-05-23T05:46:53.717Z,19.73
2023-05-23T05:49:22.616Z,18.23
2023-05-23T05:51:51.791Z,18.55
2023-05-23T05:54:21.612Z,16.85
2023-05-23T05:56:50.086Z,15.95
2023-05-23T05:59:18.640Z,17.35
2023-05-23T06:01:47.147Z,16.40
2023-05-23T06:04:16.542Z,14.82
2023-05-23T06:06:45.149Z,15.77
2023-05-23T06:09:13.523Z,17.92
2023-05-23T06:11:43.265Z,16.70
2023-05-23T06:14:11.807Z,15.00
2023-05-23T06:16:44.180Z,15.38
2023-05-23T06:19:13.172Z,15.25
2023-05-23T06:21:42.460Z,13.95
2023-05-23T06:24:12.518Z,15.30
2023-05-23T06:26:41.012Z,14.52
2023-05-23T06:29:11.544Z,13.20
2023-05-23T06:31:40.481Z,12.88
2023-05-23T06:34:09.206Z,12.32
2023-05-23T06:36:37.746Z,13.18
2023-05-23T06:39:06.189Z,11.63
2023-05-23T06:41:35.005Z,12.05
2023-05-23T06:44:03.558Z,12.32
2023-05-23T06:46:34.543Z,11.45
2023-05-23T06:49:14.367Z,12.05
2023-05-23T06:51:45.070Z,12.02
2023-05-23T06:54:14.211Z,12.02
2023-05-23T06:56:42.906Z,13.65
2023-05-23T06:59:11.418Z,12.98
2023-05-23T07:01:42.610Z,13.85
2023-05-23T07:04:14.090Z,12.18
2023-05-23T07:06:43.624Z,9.63
2023-05-23T07:09:13.192Z,8.68
2023-05-23T07:11:42.712Z,9.73
2023-05-23T07:14:11.773Z,8.43
2023-05-23T07:16:47.352Z,7.68
2023-05-23T07:19:15.852Z,6.88
2023-05-23T07:21:48.223Z,6.80
2023-05-23T07:24:19.137Z,6.78
2023-05-23T07:26:47.641Z,5.95
2023-05-23T07:29:17.038Z,6.70
2023-05-23T07:31:52.102Z,7.78
2023-05-23T07:34:21.881Z,5.40
2023-05-23T07:36:54.936Z,6.35
2023-05-23T07:39:25.968Z,5.63
2023-05-23T07:41:55.480Z,6.18
2023-05-23T07:44:25.315Z,5.65
2023-05-23T07:46:56.997Z,7.93
2023-05-23T07:49:29.525Z,6.45
2023-05-23T07:51:59.817Z,5.05
2023-05-23T07:54:28.286Z,9.40
2023-05-23T07:57:00.468Z,7.53
2023-05-23T07:59:30.121Z,8.02
2023-05-23T08:02:01.679Z,6.38
2023-05-23T08:04:32.258Z,9.13
2023-05-23T08:07:05.441Z,6.55
2023-05-23T08:09:47.414Z,6.03
2023-05-23T08:12:20.729Z,7.70
2023-05-23T08:14:52.921Z,8.60
2023-05-23T08:17:28.024Z,7.95
2023-05-23T08:19:56.761Z,6.88
2023-05-23T08:22:25.192Z,6.13
2023-05-23T08:24:56.850Z,8.77
2023-05-23T08:27:26.551Z,6.40
2023-05-23T08:29:59.666Z,6.18
2023-05-23T08:32:29.586Z,8.32
2023-05-23T08:34:58.554Z,6.70
2023-05-23T08:37:27.038Z,6.93
2023-05-23T08:39:55.551Z,7.82
2023-05-23T08:42:41.029Z,5.85
2023-05-23T08:45:11.695Z,6.10
2023-05-23T08:47:43.397Z,5.22
2023-05-23T08:50:13.732Z,4.95
2023-05-23T08:52:45.918Z,6.28
2023-05-23T08:55:15.102Z,5.47
2023-05-23T08:57:43.800Z,4.95
2023-05-23T09:00:33.948Z,5.72
2023-05-23T09:03:04.644Z,6.25
2023-05-23T09:05:59.456Z,6.45
2023-05-23T09:08:29.010Z,8.75
2023-05-23T09:11:02.781Z,6.47
2023-05-23T09:13:31.819Z,5.00
2023-05-23T09:16:04.823Z,6.32
2023-05-23T09:18:41.450Z,6.30
2023-05-23T09:21:11.465Z,5.47
2023-05-23T09:23:48.440Z,6.60
2023-05-23T09:26:16.981Z,5.82
2023-05-23T09:28:46.967Z,5.45
2023-05-23T09:31:16.306Z,7.15
2023-05-23T09:33:48.013Z,6.43
2023-05-23T09:36:16.720Z,5.38
2023-05-23T09:38:46.070Z,7.03
2023-05-23T09:41:15.051Z,5.65
2023-05-23T09:43:51.879Z,5.20
2023-05-23T09:46:21.218Z,6.22
2023-05-23T09:48:52.268Z,6.68
2023-05-23T09:51:22.150Z,6.25
2023-05-23T09:53:50.842Z,6.20
2023-05-23T09:56:19.661Z,5.35
2023-05-23T09:58:49.170Z,6.65
2023-05-23T10:01:18.538Z,7.53
2023-05-23T10:03:51.198Z,6.22
2023-05-23T10:06:26.742Z,6.47
2023-05-23T10:08:58.707Z,6.60
2023-05-23T10:11:41.956Z,4.95
2023-05-23T10:14:11.441Z,4.63
2023-05-23T10:16:42.224Z,5.43
2023-05-23T10:19:15.293Z,5.03
2023-05-23T10:21:46.929Z,6.07
2023-05-23T10:24:15.655Z,11.55
2023-05-23T10:26:45.150Z,6.10
2023-05-23T10:29:14.647Z,6.18
2023-05-23T10:31:43.513Z,5.55
2023-05-23T10:34:19.305Z,5.53
2023-05-23T10:36:54.032Z,6.32
2023-05-23T10:39:29.668Z,5.57
2023-05-23T10:42:00.748Z,7.45
2023-05-23T10:44:30.769Z,7.25
2023-05-23T10:47:02.024Z,5.93
2023-05-23T10:49:40.217Z,6.35
2023-05-23T10:52:13.417Z,7.18
2023-05-23T10:54:45.547Z,6.95
2023-05-23T10:57:14.418Z,6.00
2023-05-23T10:59:42.914Z,5.63
2023-05-23T11:02:18.896Z,6.97
2023-05-23T11:04:50.206Z,7.38
2023-05-23T11:07:33.237Z,6.25
2023-05-23T11:10:05.306Z,8.23
2023-05-23T11:12:41.038Z,6.47
2023-05-23T11:15:24.429Z,9.65
2023-05-23T11:17:54.080Z,7.40
2023-05-23T11:20:23.420Z,7.78
2023-05-23T11:23:11.144Z,6.75
2023-05-23T11:25:49.327Z,6.93
2023-05-23T11:28:18.312Z,8.52
2023-05-23T11:30:49.309Z,6.60
2023-05-23T11:33:18.604Z,5.30
2023-05-23T11:35:47.758Z,5.45
2023-05-23T11:38:17.823Z,5.60
2023-05-23T11:40:47.605Z,7.03
2023-05-23T11:43:16.905Z,6.68
2023-05-23T11:45:46.622Z,6.20
2023-05-23T11:48:16.424Z,7.25
2023-05-23T11:50:45.910Z,6.72
2023-05-23T11:53:17.065Z,5.82
2023-05-23T11:55:53.112Z,6.38
2023-05-23T11:58:22.077Z,6.18
2023-05-23T12:00:53.015Z,7.95
2023-05-23T12:03:24.037Z,7.60
2023-05-23T12:05:56.145Z,8.02
2023-05-23T12:08:25.170Z,6.60
2023-05-23T12:10:58.467Z,5.20
2023-05-23T12:13:27.056Z,5.40
2023-05-23T12:15:56.326Z,7.00
2023-05-23T12:18:25.049Z,4.80
2023-05-23T12:20:53.831Z,6.35
2023-05-23T12:23:23.255Z,5.63
2023-05-23T12:25:52.834Z,4.68
2023-05-23T12:28:22.755Z,3.80
2023-05-23T12:30:51.282Z,3.80
2023-05-23T12:33:20.874Z,5.95
2023-05-23T12:35:49.358Z,3.47
2023-05-23T12:38:18.265Z,3.58
2023-05-23T12:40:46.667Z,6.57
2023-05-23T12:43:17.672Z,5.85
2023-05-23T12:45:47.466Z,2.55
2023-05-23T12:48:15.810Z,3.28
2023-05-23T12:50:44.164Z,2.85
2023-05-23T12:53:12.734Z,4.70
2023-05-23T12:55:41.337Z,4.93
2023-05-23T12:58:09.859Z,3.97
2023-05-23T13:00:40.985Z,4.65
2023-05-23T13:03:11.116Z,3.60
2023-05-23T13:05:40.442Z,5.28
2023-05-23T13:08:08.959Z,4.15
2023-05-23T13:10:38.330Z,4.40
2023-05-23T13:13:07.317Z,3.83
2023-05-23T13:15:36.063Z,4.50
2023-05-23T13:18:04.469Z,4.18
2023-05-23T13:20:34.830Z,5.90
2023-05-23T13:23:03.406Z,4.13
2023-05-23T13:25:31.764Z,4.38
2023-05-23T13:28:01.349Z,4.47
2023-05-23T13:30:30.382Z,3.97
2023-05-23T13:32:58.843Z,5.18
2023-05-23T13:35:27.515Z,5.63
2023-05-23T13:37:57.207Z,5.80
2023-05-23T13:40:25.745Z,5.70
2023-05-23T13:42:54.152Z,5.32
2023-05-23T13:45:23.351Z,5.90
2023-05-23T13:47:51.880Z,5.55
2023-05-23T13:50:20.681Z,6.93
2023-05-23T13:52:49.661Z,5.65
2023-05-23T13:55:19.555Z,5.65
2023-05-23T13:57:48.080Z,8.82
2023-05-23T14:00:17.371Z,7.65
2023-05-23T14:02:49.569Z,8.15
2023-05-23T14:05:19.407Z,6.45
2023-05-23T14:07:48.345Z,7.05
2023-05-23T14:10:17.440Z,6.60
2023-05-23T14:12:47.661Z,7.97
2023-05-23T14:15:16.369Z,6.78
2023-05-23T14:17:44.814Z,6.88
2023-05-23T14:20:13.611Z,6.55
2023-05-23T14:22:41.982Z,5.35
2023-05-23T14:25:10.933Z,5.20
2023-05-23T14:27:40.152Z,7.53
2023-05-23T14:30:11.018Z,8.00
2023-05-23T14:32:39.525Z,7.50
2023-05-23T14:35:09.049Z,7.07
2023-05-23T14:37:37.547Z,8.13
2023-05-23T14:40:06.605Z,9.02
2023-05-23T14:42:35.052Z,9.40
2023-05-23T14:45:03.527Z,7.78
2023-05-23T14:47:33.703Z,8.45
2023-05-23T14:50:02.276Z,10.15
2023-05-23T14:52:30.992Z,8.15
2023-05-23T14:55:01.361Z,10.55
2023-05-23T14:57:29.806Z,10.32
2023-05-23T14:59:58.174Z,8.75
2023-05-23T15:02:30.437Z,8.75
2023-05-23T15:05:04.721Z,8.15
2023-05-23T15:07:33.384Z,9.52
2023-05-23T15:10:02.657Z,8.50
2023-05-23T15:12:31.070Z,8.15
2023-05-23T15:15:03.669Z,8.20
2023-05-23T15:17:35.136Z,8.00
2023-05-23T15:20:06.966Z,8.02
2023-05-23T15:22:39.704Z,8.30
2023-05-23T15:25:08.892Z,9.88
2023-05-23T15:27:37.254Z,8.07
2023-05-23T15:30:06.045Z,7.00
2023-05-23T15:32:34.575Z,9.20
2023-05-23T15:35:03.025Z,7.32
2023-05-23T15:37:32.702Z,9.75
2023-05-23T15:40:02.245Z,9.30
2023-05-23T15:42:30.786Z,10.13
2023-05-23T15:44:59.264Z,10.18
2023-05-23T15:47:27.870Z,7.60
2023-05-23T15:49:56.242Z,8.20
2023-05-23T15:52:24.564Z,10.30
2023-05-23T15:54:54.369Z,6.75
2023-05-23T15:57:22.743Z,6.15
2023-05-23T15:59:51.279Z,5.57
2023-05-23T16:02:21.083Z,6.28
2023-05-23T16:04:50.033Z,5.78
2023-05-23T16:07:18.669Z,6.78
2023-05-23T16:09:47.097Z,5.88
2023-05-23T16:12:16.852Z,5.70
2023-05-23T16:14:47.408Z,6.65
2023-05-23T16:17:15.844Z,6.13
2023-05-23T16:19:46.873Z,6.00
2023-05-23T16:22:16.086Z,6.28
2023-05-23T16:24:50.638Z,5.88
2023-05-23T16:27:20.687Z,8.00
2023-05-23T16:29:49.053Z,7.22
2023-05-23T16:32:17.463Z,8.43
2023-05-23T16:34:54.626Z,6.05
2023-05-23T16:37:25.461Z,6.38
2023-05-23T16:40:01.779Z,6.38
2023-05-23T16:42:34.256Z,7.25
2023-05-23T16:45:02.830Z,6.38
2023-05-23T16:47:33.744Z,7.35
2023-05-23T16:50:04.964Z,5.63
2023-05-23T16:52:36.348Z,5.25
2023-05-23T16:55:10.860Z,6.85
2023-05-23T16:57:40.896Z,5.20
2023-05-23T17:00:11.974Z,5.40
2023-05-23T17:02:47.764Z,5.00
2023-05-23T17:05:17.501Z,4.93
2023-05-23T17:07:47.022Z,5.68
2023-05-23T17:10:15.924Z,9.35
2023-05-23T17:12:46.963Z,6.05
2023-05-23T17:15:15.492Z,8.27
2023-05-23T17:17:44.001Z,6.53
2023-05-23T17:20:12.777Z,5.68
2023-05-23T17:22:41.722Z,5.07
2023-05-23T17:25:10.851Z,6.75
2023-05-23T17:27:39.223Z,6.65
2023-05-23T17:30:09.821Z,7.00
2023-05-23T17:32:48.194Z,7.85
2023-05-23T17:35:16.627Z,7.60
2023-05-23T17:37:45.277Z,6.43
2023-05-23T17:40:14.176Z,10.32
2023-05-23T17:42:42.726Z,6.75
2023-05-23T17:45:13.003Z,5.38
2023-05-23T17:47:41.608Z,12.77
2023-05-23T17:50:11.253Z,8.32
2023-05-23T17:52:39.612Z,8.15
2023-05-23T17:55:08.334Z,8.50
2023-05-23T17:57:36.656Z,5.93
2023-05-23T18:00:08.257Z,6.80
2023-05-23T18:02:47.267Z,9.48
2023-05-23T18:05:15.741Z,12.60
2023-05-23T18:07:44.090Z,8.20
2023-05-23T18:10:13.119Z,7.55
2023-05-23T18:12:41.867Z,5.68
2023-05-23T18:15:11.172Z,8.43
2023-05-23T18:17:39.674Z,8.38
2023-05-23T18:20:10.784Z,9.38
2023-05-23T18:22:41.191Z,6.47
2023-05-23T18:25:19.180Z,6.70
2023-05-23T18:27:47.627Z,11.07
2023-05-23T18:30:16.217Z,7.93
2023-05-23T18:32:47.309Z,7.57
2023-05-23T18:35:17.645Z,8.45
2023-05-23T18:37:46.425Z,9.38
2023-05-23T18:40:28.282Z,7.90
2023-05-23T18:42:58.891Z,7.70
2023-05-23T18:45:32.403Z,12.40
2023-05-23T18:48:00.968Z,9.38
2023-05-23T18:50:31.472Z,9.20
2023-05-23T18:53:00.259Z,7.70
2023-05-23T18:55:28.833Z,9.00
2023-05-23T18:57:58.979Z,10.20
2023-05-23T19:00:27.998Z,12.27
2023-05-23T19:02:56.701Z,8.85
2023-05-23T19:05:30.523Z,11.57
2023-05-23T19:08:01.214Z,8.60
2023-05-23T19:10:29.825Z,7.20
2023-05-23T19:12:58.206Z,9.32
2023-05-23T19:15:26.826Z,16.77
2023-05-23T19:17:55.288Z,9.45
2023-05-23T19:20:23.863Z,8.60
2023-05-23T19:22:54.596Z,7.30
2023-05-23T19:25:26.069Z,9.50
2023-05-23T19:27:55.666Z,6.97
2023-05-23T19:30:24.479Z,13.15
2023-05-23T19:32:52.969Z,10.75
2023-05-23T19:35:30.309Z,8.13
2023-05-23T19:37:59.026Z,12.38
2023-05-23T19:40:28.788Z,7.70
2023-05-23T19:42:57.209Z,7.30
2023-05-23T19:45:25.711Z,7.70
2023-05-23T19:47:57.104Z,13.75
2023-05-23T19:50:28.508Z,9.32
2023-05-23T19:52:56.978Z,10.05
2023-05-23T19:55:25.639Z,7.88
2023-05-23T19:57:56.261Z,10.27
2023-05-23T20:00:25.485Z,8.45
2023-05-23T20:02:56.900Z,9.63
2023-05-23T20:05:30.583Z,9.52
2023-05-23T20:08:01.189Z,10.30
2023-05-23T20:10:32.830Z,10.75
2023-05-23T20:13:08.489Z,8.95
2023-05-23T20:15:39.801Z,9.10
2023-05-23T20:18:15.349Z,8.95
2023-05-23T20:20:43.881Z,13.75
2023-05-23T20:23:14.787Z,10.27
2023-05-23T20:25:48.950Z,11.68
2023-05-23T20:28:18.844Z,8.15
2023-05-23T20:30:47.530Z,10.93
2023-05-23T20:33:21.812Z,10.82
2023-05-23T20:35:50.411Z,9.52
2023-05-23T20:38:19.955Z,9.07
2023-05-23T20:40:52.435Z,9.00
2023-05-23T20:43:23.663Z,8.30
2023-05-23T20:45:52.185Z,15.90
2023-05-23T20:48:21.443Z,7.10
2023-05-23T20:50:49.847Z,6.07
2023-05-23T20:53:18.442Z,9.88
2023-05-23T20:55:50.000Z,8.60
2023-05-23T20:58:18.528Z,10.02
2023-05-23T21:00:53.395Z,9.32
2023-05-23T21:03:30.897Z,11.45
2023-05-23T21:06:03.611Z,11.27
2023-05-23T21:08:42.931Z,10.30
2023-05-23T21:11:17.387Z,11.57
2023-05-23T21:13:52.347Z,9.00
2023-05-23T21:16:22.114Z,18.33
2023-05-23T21:18:50.570Z,7.65
2023-05-23T21:21:19.029Z,8.10
2023-05-23T21:23:47.462Z,10.48
2023-05-23T21:26:17.571Z,8.65
2023-05-23T21:28:46.008Z,9.95
2023-05-23T21:31:14.818Z,7.45
2023-05-23T21:33:47.678Z,12.30
2023-05-23T21:36:16.154Z,12.40
2023-05-23T21:38:44.565Z,9.32
2023-05-23T21:41:12.993Z,9.65
2023-05-23T21:43:43.254Z,11.00
2023-05-23T21:46:13.246Z,13.45
2023-05-23T21:48:41.714Z,7.15
2023-05-23T21:51:12.725Z,11.90
2023-05-23T21:53:41.134Z,10.77
2023-05-23T21:56:09.607Z,9.23
2023-05-23T21:58:38.105Z,8.57
2023-05-23T22:01:06.479Z,13.05
2023-05-23T22:03:35.974Z,11.25
2023-05-23T22:06:04.616Z,11.80
2023-05-23T22:08:34.531Z,10.63
2023-05-23T22:11:04.402Z,9.93
2023-05-23T22:13:35.611Z,9.57
2023-05-23T22:16:08.289Z,11.90
2023-05-23T22:18:50.923Z,13.20
2023-05-23T22:21:20.209Z,12.40
2023-05-23T22:23:49.910Z,8.65
2023-05-23T22:26:18.815Z,11.15
2023-05-23T22:28:47.372Z,9.57
2023-05-23T22:31:15.827Z,8.00
2023-05-23T22:33:44.308Z,8.85
2023-05-23T22:36:12.666Z,10.68
2023-05-23T22:38:41.050Z,11.13
2023-05-23T22:41:10.825Z,13.05
2023-05-23T22:43:39.229Z,9.95
2023-05-23T22:46:07.887Z,11.07
2023-05-23T22:48:36.623Z,13.38
2023-05-23T22:51:05.858Z,14.25
2023-05-23T22:53:34.289Z,12.02
2023-05-23T22:56:02.681Z,11.07
2023-05-23T22:58:32.477Z,12.23
2023-05-23T23:01:01.041Z,11.50
2023-05-23T23:03:29.504Z,10.02
2023-05-23T23:05:59.271Z,11.15
2023-05-23T23:08:27.869Z,10.10
2023-05-23T23:10:56.270Z,9.88
2023-05-23T23:13:24.675Z,10.32
2023-05-23T23:15:54.810Z,13.38
2023-05-23T23:18:23.221Z,8.57
2023-05-23T23:20:51.566Z,10.45
2023-05-23T23:23:19.970Z,13.07
2023-05-23T23:25:50.173Z,11.27
2023-05-23T23:28:18.846Z,12.63
2023-05-23T23:30:47.204Z,8.43
2023-05-23T23:33:17.110Z,12.00
2023-05-23T23:35:48.396Z,11.63
2023-05-23T23:38:17.301Z,14.82
2023-05-23T23:40:45.885Z,11.60
2023-05-23T23:43:14.466Z,12.52
2023-05-23T23:45:42.950Z,11.73
2023-05-23T23:48:13.785Z,11.18
2023-05-23T23:50:43.823Z,8.57
2023-05-23T23:53:12.592Z,14.23
2023-05-23T23:55:41.020Z,11.55
2023-05-23T23:58:09.435Z,13.90
